Time;durP1;ratioP1;P1;durP2;ratioP2;P2;SDS_P1;SDS_P2;PMS_P1;PMS_P2;Temp;Humidity;BMP_temperature;BMP_pressure;BME280_temperature;BME280_humidity;BME280_pressure;Samples;Min_cycle;Max_cycle;Signal;HPM_P1;HPM_P2
2022/01/28 00:00:48;;;;;;;;;;;0.50;99.90;;;;;;4176149;28;19929;-51
2022/01/28 00:03:04;;;;;;;;;;;0.70;99.90;;;;;;4159905;28;19933;-52
2022/01/28 00:05:13;;;;;;;;;;;0.90;99.90;;;;;;4177420;28;20032;-52
2022/01/28 00:07:15;;;;;;;;;;;1.10;99.90;;;;;;4175183;28;19929;-52
2022/01/28 00:09:17;;;;;;;;;;;1.00;99.90;;;;;;4177584;28;20468;-52
2022/01/28 00:11:19;;;;;;;;;;;1.00;99.90;;;;;;4178414;28;19991;-52
2022/01/28 00:15:41;;;;;;;;;;;1.10;99.90;;;;;;4176992;28;19968;-52
2022/01/28 00:38:33;;;;;;;;;;;0.90;99.90;;;;;;4169209;28;20075;-52
2022/01/28 00:40:35;;;;;;;;;;;0.90;99.90;;;;;;4173010;28;20003;-51
2022/01/28 00:42:37;;;;;;;;;;;0.80;99.90;;;;;;4178600;28;19925;-52
2022/01/28 00:44:39;;;;;;;;;;;0.70;99.90;;;;;;4173063;28;19925;-51
2022/01/28 00:46:41;;;;;;;;;;;0.70;99.90;;;;;;4167948;28;19933;-52
2022/01/28 00:48:43;;;;;;;;;;;0.70;99.90;;;;;;4178516;28;20377;-52
2022/01/28 00:50:45;;;;;;;;;;;0.70;99.90;;;;;;4158607;28;19925;-52
2022/01/28 00:52:47;;;;;;;;;;;0.70;99.90;;;;;;4176483;28;20029;-52
2022/01/28 00:54:50;;;;;;;;;;;0.90;99.90;;;;;;4175010;28;20011;-52
2022/01/28 00:56:52;;;;;;;;;;;0.90;99.90;;;;;;4178990;28;19975;-51
2022/01/28 00:58:54;;;;;;;;;;;0.90;99.90;;;;;;4176879;28;20592;-51
2022/01/28 01:00:55;;;;;;;;;;;0.90;99.90;;;;;;4177696;28;19963;-52
2022/01/28 01:02:57;;;;;;;;;;;0.90;99.90;;;;;;4172319;28;19936;-51
2022/01/28 01:04:59;;;;;;;;;;;0.70;99.90;;;;;;4169836;28;19925;-52
2022/01/28 01:07:02;;;;;;;;;;;0.80;99.90;;;;;;4176067;28;19928;-52
2022/01/28 01:09:04;;;;;;;;;;;0.80;99.90;;;;;;4172350;28;19975;-52
2022/01/28 01:11:06;;;;;;;;;;;0.90;99.90;;;;;;4176301;28;20261;-51
2022/01/28 01:13:08;;;;;;;;;;;0.80;99.90;;;;;;4159376;28;20444;-51
2022/01/28 01:15:12;;;;;;;;;;;0.60;99.90;;;;;;4174136;28;19929;-52
2022/01/28 01:17:30;;;;;;;;;;;0.60;99.90;;;;;;4177870;28;19978;-52
2022/01/28 01:19:38;;;;;;;;;;;0.60;99.90;;;;;;4175328;28;20010;-51
2022/01/28 01:21:42;;;;;;;;;;;0.50;99.90;;;;;;4173738;28;19924;-51
2022/01/28 01:23:51;;;;;;;;;;;0.50;99.90;;;;;;4177456;28;19924;-52
2022/01/28 01:27:58;;;;;;;;;;;0.20;99.90;;;;;;4173676;28;19939;-51
2022/01/28 01:30:00;;;;;;;;;;;0.20;99.90;;;;;;4175890;28;19987;-52
2022/01/28 01:32:03;;;;;;;;;;;0.40;99.90;;;;;;4172411;28;19928;-52
2022/01/28 01:34:12;;;;;;;;;;;0.50;99.90;;;;;;4174702;28;19924;-51
2022/01/28 01:36:14;;;;;;;;;;;0.40;99.90;;;;;;4176510;28;19960;-52
2022/01/28 01:38:16;;;;;;;;;;;0.40;99.90;;;;;;4177510;28;19947;-52
2022/01/28 01:40:26;;;;;;;;;;;0.20;99.90;;;;;;4171812;28;19932;-52
2022/01/28 01:42:54;;;;;;;;;;;0.20;99.90;;;;;;4173651;28;20413;-52
2022/01/28 01:45:37;;;;;;;;;;;0.10;99.90;;;;;;4171316;28;20014;-53
2022/01/28 01:52:02;;;;;;;;;;;-0.10;99.90;;;;;;4175269;28;19925;-51
2022/01/28 01:54:04;;;;;;;;;;;-0.10;99.90;;;;;;4169344;28;20450;-53
2022/01/28 01:56:06;;;;;;;;;;;-0.10;99.90;;;;;;4174806;28;19968;-52
2022/01/28 01:58:08;;;;;;;;;;;0.00;99.90;;;;;;4173457;28;19935;-51
2022/01/28 02:00:10;;;;;;;;;;;-0.10;99.90;;;;;;4177466;28;20309;-53
2022/01/28 02:02:12;;;;;;;;;;;-0.20;99.90;;;;;;4174141;28;19940;-51
2022/01/28 02:04:14;;;;;;;;;;;-0.10;99.90;;;;;;4176234;28;19979;-52
2022/01/28 02:06:20;;;;;;;;;;;-0.20;99.90;;;;;;4164277;28;20289;-53
2022/01/28 02:08:22;;;;;;;;;;;-0.30;99.90;;;;;;4175419;28;19933;-52
2022/01/28 02:10:24;;;;;;;;;;;-0.30;99.90;;;;;;4162112;28;19925;-53
2022/01/28 02:12:26;;;;;;;;;;;-0.20;99.90;;;;;;4175373;28;19932;-51
2022/01/28 02:14:28;;;;;;;;;;;-0.10;99.90;;;;;;4170417;28;19929;-52
2022/01/28 02:16:30;;;;;;;;;;;-0.10;99.90;;;;;;4175688;28;19933;-51
2022/01/28 02:18:32;;;;;;;;;;;-0.10;99.90;;;;;;4166782;28;19929;-51
2022/01/28 02:20:37;;;;;;;;;;;-0.10;99.90;;;;;;4173002;28;19929;-52
2022/01/28 02:22:39;;;;;;;;;;;-0.10;99.90;;;;;;4175036;28;19951;-53
2022/01/28 02:24:44;;;;;;;;;;;0.00;99.90;;;;;;4176915;28;19982;-52
2022/01/28 02:26:46;;;;;;;;;;;0.20;99.90;;;;;;4174379;28;19925;-51
2022/01/28 02:28:52;;;;;;;;;;;0.30;99.90;;;;;;4175599;28;20395;-52
2022/01/28 02:30:54;;;;;;;;;;;0.10;99.90;;;;;;4166325;28;19972;-52
2022/01/28 02:33:07;;;;;;;;;;;0.00;99.90;;;;;;4175274;28;19924;-51
2022/01/28 02:35:10;;;;;;;;;;;0.00;99.90;;;;;;4174676;28;20423;-52
2022/01/28 02:37:12;;;;;;;;;;;0.00;99.90;;;;;;4177171;28;19983;-51
2022/01/28 02:39:14;;;;;;;;;;;0.20;99.90;;;;;;4170366;28;19932;-52
2022/01/28 02:41:16;;;;;;;;;;;0.40;99.90;;;;;;4174502;28;19952;-52
2022/01/28 02:45:35;;;;;;;;;;;0.70;99.90;;;;;;4175112;28;19925;-52
2022/01/28 02:47:38;;;;;;;;;;;0.70;99.90;;;;;;4176190;28;20386;-52
2022/01/28 02:49:42;;;;;;;;;;;0.60;99.90;;;;;;4175467;28;20457;-52
2022/01/28 02:51:44;;;;;;;;;;;0.20;99.90;;;;;;4172410;28;19979;-52
2022/01/28 02:53:55;;;;;;;;;;;0.10;99.90;;;;;;4176085;28;19928;-52
2022/01/28 02:56:01;;;;;;;;;;;0.00;99.90;;;;;;4177039;28;19935;-52
2022/01/28 02:58:17;;;;;;;;;;;-0.10;99.90;;;;;;4166506;28;20689;-51
2022/01/28 03:00:19;;;;;;;;;;;-0.10;99.90;;;;;;4167866;28;19979;-51
2022/01/28 03:02:21;;;;;;;;;;;0.00;99.90;;;;;;4176648;28;19963;-53
2022/01/28 03:06:45;;;;;;;;;;;0.00;99.90;;;;;;4135288;28;20428;-52
2022/01/28 03:15:34;;;;;;;;;;;0.10;99.90;;;;;;4141241;28;19934;-53
2022/01/28 03:17:53;;;;;;;;;;;0.30;99.90;;;;;;4140340;28;19952;-53
2022/01/28 03:20:06;;;;;;;;;;;0.40;99.90;;;;;;4141398;28;19930;-52
2022/01/28 03:22:08;;;;;;;;;;;0.50;99.90;;;;;;4140220;28;20004;-52
2022/01/28 03:24:11;;;;;;;;;;;0.50;99.90;;;;;;4141072;28;19929;-51
2022/01/28 03:26:14;;;;;;;;;;;0.50;99.90;;;;;;4141272;28;20448;-52
2022/01/28 03:28:19;;;;;;;;;;;0.50;99.90;;;;;;4140511;28;19936;-52
2022/01/28 03:30:21;;;;;;;;;;;0.50;99.90;;;;;;4141699;28;19935;-52
2022/01/28 03:32:23;;;;;;;;;;;0.50;99.90;;;;;;4141064;28;19980;-53
2022/01/28 03:34:25;;;;;;;;;;;0.60;99.90;;;;;;4140737;28;19934;-52
2022/01/28 03:36:27;;;;;;;;;;;0.60;99.90;;;;;;4141371;28;19973;-53
2022/01/28 03:38:30;;;;;;;;;;;0.70;99.90;;;;;;4141174;28;19929;-52
2022/01/28 03:40:33;;;;;;;;;;;0.70;99.90;;;;;;4143669;28;19951;-53
2022/01/28 03:42:36;;;;;;;;;;;0.80;99.90;;;;;;4144030;28;19932;-52
2022/01/28 03:44:38;;;;;;;;;;;0.80;99.90;;;;;;4143870;28;19948;-53
2022/01/28 03:46:40;;;;;;;;;;;0.60;99.90;;;;;;4149948;28;19960;-52
2022/01/28 03:48:42;;;;;;;;;;;0.70;99.90;;;;;;4175015;28;20439;-52
2022/01/28 03:50:44;;;;;;;;;;;0.70;99.90;;;;;;4171846;28;20431;-53
2022/01/28 03:52:46;;;;;;;;;;;0.60;99.90;;;;;;4176977;28;20019;-53
2022/01/28 03:54:48;;;;;;;;;;;0.50;99.90;;;;;;4178889;28;20213;-53
2022/01/28 03:56:51;;;;;;;;;;;0.60;99.90;;;;;;4172436;28;19936;-54
2022/01/28 03:58:53;;;;;;;;;;;0.70;99.90;;;;;;4177999;28;20372;-53
2022/01/28 04:00:56;;;;;;;;;;;0.60;99.90;;;;;;4178547;28;19932;-52
2022/01/28 04:03:10;;;;;;;;;;;0.40;99.90;;;;;;4176866;28;19932;-52
2022/01/28 04:12:08;;;;;;;;;;;0.70;99.90;;;;;;4176870;28;20458;-53
2022/01/28 04:14:15;;;;;;;;;;;0.60;99.90;;;;;;4178755;28;19929;-53
2022/01/28 04:16:31;;;;;;;;;;;0.50;99.90;;;;;;4171191;28;19972;-53
2022/01/28 04:18:32;;;;;;;;;;;0.50;99.90;;;;;;4158289;28;20423;-53
2022/01/28 04:20:35;;;;;;;;;;;0.40;99.90;;;;;;4177038;28;19964;-53
2022/01/28 04:22:37;;;;;;;;;;;0.30;99.90;;;;;;4178553;28;19924;-53
2022/01/28 04:24:39;;;;;;;;;;;0.30;99.90;;;;;;4176829;28;19931;-53
2022/01/28 04:26:40;;;;;;;;;;;0.20;99.90;;;;;;4176919;28;19932;-53
2022/01/28 04:28:42;;;;;;;;;;;0.50;99.90;;;;;;4178884;28;19956;-54
2022/01/28 04:30:44;;;;;;;;;;;0.60;99.90;;;;;;4176091;28;20385;-53
2022/01/28 04:32:48;;;;;;;;;;;0.60;99.90;;;;;;4175843;28;19925;-53
2022/01/28 04:34:53;;;;;;;;;;;0.60;99.90;;;;;;4179083;28;19925;-53
2022/01/28 04:37:21;;;;;;;;;;;0.70;99.90;;;;;;4176071;28;19986;-53
2022/01/28 04:39:32;;;;;;;;;;;1.00;99.90;;;;;;4176305;28;19987;-50
2022/01/28 04:43:55;;;;;;;;;;;0.80;99.90;;;;;;4174843;28;19929;-53
2022/01/28 04:46:31;;;;;;;;;;;0.70;99.90;;;;;;4172159;28;19925;-53
2022/01/28 04:48:34;;;;;;;;;;;0.60;99.90;;;;;;4177871;28;20305;-53
2022/01/28 04:57:19;;;;;;;;;;;1.40;99.90;;;;;;4162420;28;19932;-52
2022/01/28 05:11:10;;;;;;;;;;;0.50;99.90;;;;;;4174968;28;19975;-52
2022/01/28 05:13:53;;;;;;;;;;;0.40;99.90;;;;;;4177217;28;20284;-52
2022/01/28 05:26:53;;;;;;;;;;;0.20;99.90;;;;;;4175189;28;19925;-51
2022/01/28 05:28:55;;;;;;;;;;;0.10;99.90;;;;;;4175606;28;19932;-52
2022/01/28 05:30:57;;;;;;;;;;;0.30;99.90;;;;;;4176908;28;20538;-52
2022/01/28 05:32:59;;;;;;;;;;;0.60;99.90;;;;;;4175889;28;19960;-53
2022/01/28 05:35:01;;;;;;;;;;;0.70;99.90;;;;;;4175092;28;19925;-52
2022/01/28 05:37:03;;;;;;;;;;;0.70;99.90;;;;;;4181999;28;20032;-53
2022/01/28 05:39:05;;;;;;;;;;;0.50;99.90;;;;;;4176934;28;19924;-52
2022/01/28 05:41:07;;;;;;;;;;;0.50;99.90;;;;;;4142503;28;19933;-52
2022/01/28 05:43:09;;;;;;;;;;;0.50;99.90;;;;;;4172230;28;19964;-52
2022/01/28 05:45:15;;;;;;;;;;;0.40;99.90;;;;;;4175679;28;19929;-52
2022/01/28 05:47:18;;;;;;;;;;;0.30;99.90;;;;;;4158472;28;19925;-51
2022/01/28 05:49:20;;;;;;;;;;;0.40;99.90;;;;;;4173601;28;19928;-52
2022/01/28 05:51:21;;;;;;;;;;;0.50;99.90;;;;;;4172180;28;20388;-52
2022/01/28 05:53:23;;;;;;;;;;;0.60;99.90;;;;;;4173468;28;20043;-52
2022/01/28 05:55:25;;;;;;;;;;;0.70;99.90;;;;;;4177004;28;19929;-52
2022/01/28 05:57:27;;;;;;;;;;;0.80;99.90;;;;;;4172741;28;19925;-53
2022/01/28 05:59:30;;;;;;;;;;;0.80;99.90;;;;;;4173939;28;20015;-52
2022/01/28 06:01:32;;;;;;;;;;;0.70;99.90;;;;;;4166658;28;20125;-53
2022/01/28 06:03:34;;;;;;;;;;;0.50;99.90;;;;;;4157979;28;19933;-51
2022/01/28 06:05:37;;;;;;;;;;;0.60;99.90;;;;;;4177648;28;19925;-52
2022/01/28 06:07:41;;;;;;;;;;;0.80;99.90;;;;;;4165930;28;19956;-52
2022/01/28 06:09:43;;;;;;;;;;;1.00;99.90;;;;;;4174016;28;19939;-52
2022/01/28 06:11:46;;;;;;;;;;;1.00;99.90;;;;;;4176689;28;20019;-52
2022/01/28 06:13:49;;;;;;;;;;;0.70;99.90;;;;;;4176167;28;19928;-52
2022/01/28 06:15:51;;;;;;;;;;;0.30;99.90;;;;;;4172464;28;20400;-53
2022/01/28 06:17:52;;;;;;;;;;;0.30;99.90;;;;;;4164251;28;19970;-52
2022/01/28 06:19:54;;;;;;;;;;;0.20;99.90;;;;;;4175664;28;19932;-53
2022/01/28 06:21:56;;;;;;;;;;;0.30;99.90;;;;;;4174871;28;20002;-52
2022/01/28 06:23:58;;;;;;;;;;;0.50;99.90;;;;;;4176524;28;19960;-50
2022/01/28 06:26:00;;;;;;;;;;;0.70;99.90;;;;;;4166917;28;19932;-52
2022/01/28 06:28:05;;;;;;;;;;;0.80;99.90;;;;;;4170203;28;19929;-53
2022/01/28 06:30:07;;;;;;;;;;;0.80;99.90;;;;;;4174122;28;19933;-53
2022/01/28 06:32:11;;;;;;;;;;;0.60;99.90;;;;;;4166640;28;19964;-51
2022/01/28 06:34:13;;;;;;;;;;;0.40;99.90;;;;;;4166734;28;19929;-51
2022/01/28 06:36:15;;;;;;;;;;;0.40;99.90;;;;;;4177381;28;19968;-52
2022/01/28 06:38:17;;;;;;;;;;;0.40;99.90;;;;;;4167950;28;19932;-51
2022/01/28 06:40:19;;;;;;;;;;;0.30;99.90;;;;;;4167439;28;19928;-50
2022/01/28 06:42:21;;;;;;;;;;;0.30;99.90;;;;;;4170742;28;20357;-53
2022/01/28 06:44:23;;;;;;;;;;;0.10;99.90;;;;;;4173937;28;20544;-53
2022/01/28 06:46:26;;;;;;;;;;;0.10;99.90;;;;;;4175178;28;19929;-52
2022/01/28 06:48:28;;;;;;;;;;;0.00;99.90;;;;;;4163846;28;20177;-52
2022/01/28 06:50:30;;;;;;;;;;;-0.10;99.90;;;;;;4167683;28;19968;-51
2022/01/28 06:52:32;;;;;;;;;;;0.10;99.90;;;;;;4163144;28;20384;-52
2022/01/28 06:54:34;;;;;;;;;;;0.10;99.90;;;;;;4177411;28;20365;-51
2022/01/28 06:56:36;;;;;;;;;;;0.30;99.90;;;;;;4174871;28;19932;-52
2022/01/28 06:58:38;;;;;;;;;;;0.30;99.90;;;;;;4174832;28;19986;-53
2022/01/28 07:00:40;;;;;;;;;;;0.10;99.90;;;;;;4175340;28;19925;-52
2022/01/28 07:02:44;;;;;;;;;;;0.10;99.90;;;;;;4174963;28;19925;-51
2022/01/28 07:04:46;;;;;;;;;;;0.20;99.90;;;;;;4175825;28;20399;-52
2022/01/28 07:06:48;;;;;;;;;;;0.20;99.90;;;;;;4176482;28;20032;-49
2022/01/28 07:08:51;;;;;;;;;;;0.30;99.90;;;;;;4169859;28;19929;-52
2022/01/28 07:10:53;;;;;;;;;;;0.30;99.90;;;;;;4162825;28;19924;-51
2022/01/28 07:12:56;;;;;;;;;;;0.40;99.90;;;;;;4176593;28;19982;-51
2022/01/28 07:14:58;;;;;;;;;;;0.60;99.90;;;;;;4177625;28;19947;-51
2022/01/28 07:17:00;;;;;;;;;;;0.80;99.90;;;;;;4179918;28;19932;-51
2022/01/28 07:19:02;;;;;;;;;;;0.80;99.90;;;;;;4178344;28;19978;-51
2022/01/28 07:21:04;;;;;;;;;;;0.90;99.90;;;;;;4176398;28;20017;-52
2022/01/28 07:23:06;;;;;;;;;;;0.80;99.90;;;;;;4178524;28;19982;-52
2022/01/28 07:25:08;;;;;;;;;;;0.50;99.90;;;;;;4178135;28;20433;-52
2022/01/28 07:27:10;;;;;;;;;;;0.50;99.90;;;;;;4178085;28;20393;-51
2022/01/28 07:29:13;;;;;;;;;;;0.60;99.90;;;;;;4178283;28;19983;-52
2022/01/28 07:31:18;;;;;;;;;;;0.60;99.90;;;;;;4177706;28;19940;-51
2022/01/28 07:33:20;;;;;;;;;;;0.80;99.90;;;;;;4177213;28;19925;-53
2022/01/28 07:35:22;;;;;;;;;;;1.10;99.90;;;;;;4175693;28;19960;-53
2022/01/28 07:37:23;;;;;;;;;;;1.20;99.90;;;;;;4179405;28;20423;-52
2022/01/28 07:39:27;;;;;;;;;;;1.00;99.90;;;;;;4177909;28;19933;-52
2022/01/28 07:41:29;;;;;;;;;;;0.90;99.90;;;;;;4167650;28;19925;-51
2022/01/28 07:43:34;;;;;;;;;;;1.00;99.90;;;;;;4177960;28;19929;-52
2022/01/28 07:45:37;;;;;;;;;;;1.10;99.90;;;;;;4176098;28;19929;-53
2022/01/28 07:47:39;;;;;;;;;;;1.10;99.90;;;;;;4179810;28;19931;-53
2022/01/28 07:49:41;;;;;;;;;;;1.10;99.90;;;;;;4169023;28;19929;-52
2022/01/28 07:51:43;;;;;;;;;;;1.00;99.90;;;;;;4177517;28;19925;-53
2022/01/28 07:53:45;;;;;;;;;;;1.10;99.90;;;;;;4179434;28;19924;-53
2022/01/28 07:55:46;;;;;;;;;;;1.00;99.90;;;;;;4178008;28;20047;-53
2022/01/28 07:57:48;;;;;;;;;;;0.80;99.90;;;;;;4177952;28;19978;-52
2022/01/28 07:59:50;;;;;;;;;;;1.00;99.90;;;;;;4168401;28;20274;-52
2022/01/28 08:01:52;;;;;;;;;;;1.20;99.90;;;;;;4176675;28;20367;-53
2022/01/28 08:03:54;;;;;;;;;;;1.20;99.90;;;;;;4175902;28;19925;-53
2022/01/28 08:05:56;;;;;;;;;;;1.40;99.90;;;;;;4174773;28;19951;-53
2022/01/28 08:08:03;;;;;;;;;;;1.60;99.90;;;;;;4170472;28;20355;-53
2022/01/28 08:10:07;;;;;;;;;;;1.50;99.90;;;;;;4170760;28;19924;-53
2022/01/28 08:12:09;;;;;;;;;;;1.40;99.90;;;;;;4179383;28;20020;-53
2022/01/28 08:14:10;;;;;;;;;;;1.70;99.90;;;;;;4177406;28;19956;-53
2022/01/28 08:16:12;;;;;;;;;;;2.00;99.90;;;;;;4178385;28;19924;-52
2022/01/28 08:18:15;;;;;;;;;;;2.20;99.90;;;;;;4168599;28;19925;-53
2022/01/28 08:20:16;;;;;;;;;;;2.30;99.90;;;;;;4177075;28;20783;-52
2022/01/28 08:22:18;;;;;;;;;;;2.20;99.90;;;;;;4178480;28;19925;-52
2022/01/28 08:24:20;;;;;;;;;;;2.10;99.90;;;;;;4163902;28;19979;-54
2022/01/28 08:26:23;;;;;;;;;;;2.30;99.90;;;;;;4173831;28;19935;-54
2022/01/28 08:28:24;;;;;;;;;;;2.10;99.90;;;;;;4174640;28;19925;-53
2022/01/28 08:30:27;;;;;;;;;;;2.00;99.90;;;;;;4178742;28;19932;-53
2022/01/28 08:32:29;;;;;;;;;;;2.10;99.90;;;;;;4171350;28;19925;-53
2022/01/28 08:34:31;;;;;;;;;;;2.10;99.90;;;;;;4164768;28;20004;-53
2022/01/28 08:36:34;;;;;;;;;;;1.90;99.90;;;;;;4160021;28;19932;-53
2022/01/28 08:38:39;;;;;;;;;;;2.00;99.90;;;;;;4173196;28;19940;-52
2022/01/28 08:40:41;;;;;;;;;;;2.30;99.90;;;;;;4168427;28;20319;-52
2022/01/28 08:42:43;;;;;;;;;;;2.50;99.90;;;;;;4178749;28;20346;-53
2022/01/28 08:44:45;;;;;;;;;;;2.60;99.90;;;;;;4173476;28;20203;-52
2022/01/28 08:46:47;;;;;;;;;;;2.60;99.90;;;;;;4165447;28;19956;-53
2022/01/28 08:48:49;;;;;;;;;;;2.60;99.90;;;;;;4177619;28;19925;-54
2022/01/28 08:50:51;;;;;;;;;;;2.50;99.90;;;;;;4173011;28;20642;-53
2022/01/28 08:52:53;;;;;;;;;;;2.20;99.90;;;;;;4163076;28;19929;-53
2022/01/28 08:54:55;;;;;;;;;;;2.20;99.90;;;;;;4177697;28;19929;-53
2022/01/28 08:56:57;;;;;;;;;;;2.20;99.90;;;;;;4174024;28;20678;-52
2022/01/28 08:59:10;;;;;;;;;;;2.10;99.90;;;;;;4163871;28;20012;-53
2022/01/28 09:01:12;;;;;;;;;;;2.20;99.90;;;;;;4176560;28;19964;-53
2022/01/28 09:03:18;;;;;;;;;;;2.50;99.90;;;;;;4176119;28;19932;-53
2022/01/28 09:05:20;;;;;;;;;;;2.60;99.90;;;;;;4163532;28;19931;-52
2022/01/28 09:07:22;;;;;;;;;;;2.70;99.90;;;;;;4176659;28;20423;-53
2022/01/28 09:09:24;;;;;;;;;;;2.70;99.90;;;;;;4169620;28;19929;-53
2022/01/28 09:13:37;;;;;;;;;;;3.00;99.90;;;;;;4173923;28;20337;-53
2022/01/28 09:15:40;;;;;;;;;;;3.20;99.90;;;;;;4172565;28;20832;-52
2022/01/28 09:17:42;;;;;;;;;;;3.70;99.90;;;;;;4174939;28;20179;-53
2022/01/28 09:19:44;;;;;;;;;;;4.00;99.90;;;;;;4177293;28;19962;-54
2022/01/28 09:21:46;;;;;;;;;;;4.00;99.90;;;;;;4176234;28;20339;-52
2022/01/28 09:23:48;;;;;;;;;;;3.80;99.90;;;;;;4176489;28;20386;-53
2022/01/28 09:25:50;;;;;;;;;;;4.20;99.90;;;;;;4171132;28;20452;-53
2022/01/28 09:27:52;;;;;;;;;;;4.00;99.90;;;;;;4176292;28;19924;-54
2022/01/28 09:29:54;;;;;;;;;;;3.90;99.90;;;;;;4176490;28;19925;-53
2022/01/28 09:31:56;;;;;;;;;;;4.40;99.90;;;;;;4175442;28;20035;-54
2022/01/28 09:33:58;;;;;;;;;;;4.60;99.90;;;;;;4157207;28;20347;-53
2022/01/28 09:36:00;;;;;;;;;;;4.40;99.90;;;;;;4170198;28;19932;-53
2022/01/28 09:38:02;;;;;;;;;;;4.70;99.90;;;;;;4176127;28;19960;-53
2022/01/28 09:40:04;;;;;;;;;;;5.10;99.90;;;;;;4175727;28;20624;-52
2022/01/28 09:42:11;;;;;;;;;;;5.40;99.90;;;;;;4177748;28;20376;-53
2022/01/28 09:44:18;;;;;;;;;;;5.70;99.90;;;;;;4170730;28;19935;-52
2022/01/28 09:46:21;;;;;;;;;;;6.10;99.90;;;;;;4173859;28;20233;-53
2022/01/28 09:48:23;;;;;;;;;;;6.20;99.90;;;;;;4177485;28;19999;-53
2022/01/28 09:50:26;;;;;;;;;;;6.30;99.90;;;;;;4175406;28;19951;-54
2022/01/28 09:52:28;;;;;;;;;;;6.50;99.90;;;;;;4176021;28;19982;-54
2022/01/28 09:54:30;;;;;;;;;;;6.70;99.90;;;;;;4165265;28;20482;-53
2022/01/28 09:56:32;;;;;;;;;;;6.80;99.90;;;;;;4174490;28;19990;-54
2022/01/28 09:58:36;;;;;;;;;;;7.20;99.90;;;;;;4174762;28;19932;-53
2022/01/28 10:00:38;;;;;;;;;;;7.30;99.90;;;;;;4163322;28;20154;-54
2022/01/28 10:02:50;;;;;;;;;;;7.60;99.90;;;;;;4175525;28;20340;-52
2022/01/28 10:04:52;;;;;;;;;;;7.60;99.90;;;;;;4174191;28;19955;-53
2022/01/28 10:06:55;;;;;;;;;;;7.70;99.90;;;;;;4177490;28;20384;-53
2022/01/28 10:08:59;;;;;;;;;;;7.90;99.90;;;;;;4174175;28;20440;-53
2022/01/28 10:11:11;;;;;;;;;;;8.00;99.90;;;;;;4175567;28;19967;-52
2022/01/28 10:13:45;;;;;;;;;;;8.10;99.90;;;;;;4177061;28;20023;-54
2022/01/28 10:15:55;;;;;;;;;;;8.30;99.90;;;;;;4176687;28;19983;-54
2022/01/28 10:17:59;;;;;;;;;;;9.00;99.90;;;;;;4173373;28;19928;-54
2022/01/28 10:20:07;;;;;;;;;;;9.50;99.90;;;;;;4174173;28;19929;-53
2022/01/28 10:22:17;;;;;;;;;;;9.90;99.90;;;;;;4177093;28;19932;-53
2022/01/28 10:24:34;;;;;;;;;;;9.90;99.90;;;;;;4175553;28;20430;-53
2022/01/28 10:26:37;;;;;;;;;;;10.00;99.90;;;;;;4175842;28;19932;-53
2022/01/28 10:28:49;;;;;;;;;;;9.90;99.90;;;;;;4159736;28;19925;-54
2022/01/28 10:30:51;;;;;;;;;;;9.70;99.90;;;;;;4174564;28;19929;-54
2022/01/28 10:33:14;;;;;;;;;;;9.70;99.90;;;;;;4173693;28;19929;-53
2022/01/28 10:35:29;;;;;;;;;;;9.90;99.90;;;;;;4177002;28;20300;-54
2022/01/28 10:37:34;;;;;;;;;;;10.10;99.90;;;;;;4175777;28;20019;-53
2022/01/28 10:39:59;;;;;;;;;;;10.50;99.90;;;;;;4172330;28;19983;-53
2022/01/28 10:42:01;;;;;;;;;;;11.00;99.90;;;;;;4164213;28;19924;-53
2022/01/28 10:44:05;;;;;;;;;;;11.30;99.90;;;;;;4162018;28;19936;-53
2022/01/28 10:46:07;;;;;;;;;;;11.10;99.90;;;;;;4168718;28;19937;-54
2022/01/28 10:48:09;;;;;;;;;;;10.80;99.90;;;;;;4170435;28;19925;-53
2022/01/28 10:50:22;;;;;;;;;;;10.60;99.90;;;;;;4169384;28;20043;-53
2022/01/28 10:52:32;;;;;;;;;;;10.90;99.90;;;;;;4171391;28;19968;-54
2022/01/28 10:54:35;;;;;;;;;;;11.10;99.90;;;;;;4174876;28;20020;-54
2022/01/28 10:56:48;;;;;;;;;;;11.00;99.90;;;;;;4176963;28;19928;-54
2022/01/28 10:58:50;;;;;;;;;;;11.00;99.90;;;;;;4174628;28;19928;-54
2022/01/28 11:00:59;;;;;;;;;;;11.00;99.90;;;;;;4158130;28;19929;-54
2022/01/28 11:03:03;;;;;;;;;;;11.30;99.90;;;;;;4169450;28;19931;-54
2022/01/28 11:05:05;;;;;;;;;;;11.40;99.90;;;;;;4173864;28;19928;-54
2022/01/28 11:07:07;;;;;;;;;;;11.50;99.90;;;;;;4173652;28;19935;-53
2022/01/28 11:09:10;;;;;;;;;;;11.30;99.90;;;;;;4175567;28;19933;-55
2022/01/28 11:11:12;;;;;;;;;;;11.10;99.90;;;;;;4172228;28;20002;-53
2022/01/28 11:13:14;;;;;;;;;;;11.20;99.90;;;;;;4174053;28;19928;-54
2022/01/28 11:15:16;;;;;;;;;;;11.70;99.90;;;;;;4171671;28;19928;-53
2022/01/28 11:17:18;;;;;;;;;;;12.00;99.90;;;;;;4172153;28;19964;-53
2022/01/28 11:19:22;;;;;;;;;;;11.90;99.90;;;;;;4174277;28;19932;-54
2022/01/28 11:21:34;;;;;;;;;;;11.90;99.90;;;;;;4172627;28;20379;-54
2022/01/28 11:23:53;;;;;;;;;;;12.00;99.90;;;;;;4172701;28;20385;-51
2022/01/28 11:25:58;;;;;;;;;;;12.00;99.90;;;;;;4173893;28;20419;-54
2022/01/28 11:28:03;;;;;;;;;;;12.50;99.90;;;;;;4172472;28;19971;-53
2022/01/28 11:30:15;;;;;;;;;;;12.60;99.90;;;;;;4172534;28;19967;-53
2022/01/28 11:32:18;;;;;;;;;;;12.40;99.90;;;;;;4174134;28;19929;-53
2022/01/28 11:34:27;;;;;;;;;;;12.60;99.90;;;;;;4173618;28;20020;-52
2022/01/28 11:36:31;;;;;;;;;;;12.50;99.90;;;;;;4171045;28;19925;-54
2022/01/28 11:38:40;;;;;;;;;;;12.20;99.90;;;;;;4172432;28;19940;-54
2022/01/28 11:40:49;;;;;;;;;;;12.10;99.90;;;;;;4169779;28;19928;-53
2022/01/28 11:43:11;;;;;;;;;;;12.00;99.90;;;;;;4173672;28;19960;-55
2022/01/28 11:45:14;;;;;;;;;;;12.10;99.90;;;;;;4174776;28;19979;-54
2022/01/28 11:47:23;;;;;;;;;;;12.50;99.90;;;;;;4178223;28;19925;-53
2022/01/28 11:49:25;;;;;;;;;;;12.70;99.90;;;;;;4171505;28;20024;-55
2022/01/28 11:51:43;;;;;;;;;;;12.50;99.90;;;;;;4173055;28;20407;-54
2022/01/28 11:54:01;;;;;;;;;;;12.50;99.90;;;;;;4174357;28;20434;-55
2022/01/28 11:56:03;;;;;;;;;;;12.30;99.90;;;;;;4175414;28;19979;-53
2022/01/28 11:58:07;;;;;;;;;;;12.30;99.90;;;;;;4171521;28;19976;-54
2022/01/28 12:00:21;;;;;;;;;;;12.20;99.90;;;;;;4177110;28;19925;-54
2022/01/28 12:02:23;;;;;;;;;;;12.30;99.90;;;;;;4183103;28;19975;-55
2022/01/28 12:04:25;;;;;;;;;;;12.30;99.90;;;;;;4173885;28;19925;-54
2022/01/28 12:06:27;;;;;;;;;;;12.40;99.90;;;;;;4173485;28;20012;-54
2022/01/28 12:08:30;;;;;;;;;;;12.40;99.90;;;;;;4184210;28;20019;-53
2022/01/28 12:10:39;;;;;;;;;;;12.50;99.90;;;;;;4175760;28;20078;-54
2022/01/28 12:12:42;;;;;;;;;;;12.40;99.90;;;;;;4178844;28;20504;-54
2022/01/28 12:14:55;;;;;;;;;;;12.30;99.90;;;;;;4175519;28;20011;-54
2022/01/28 12:17:00;;;;;;;;;;;12.40;99.90;;;;;;4177185;28;19948;-53
2022/01/28 12:19:13;;;;;;;;;;;12.40;99.90;;;;;;4178775;28;19925;-54
2022/01/28 12:21:17;;;;;;;;;;;12.50;99.90;;;;;;4176490;28;19975;-55
2022/01/28 12:23:19;;;;;;;;;;;12.40;99.90;;;;;;4175864;28;20440;-54
2022/01/28 12:25:53;;;;;;;;;;;12.40;99.90;;;;;;4173809;28;20278;-53
2022/01/28 12:28:10;;;;;;;;;;;12.40;99.90;;;;;;4127489;28;19980;-54
2022/01/28 12:30:14;;;;;;;;;;;12.40;99.90;;;;;;4119155;28;20410;-54
2022/01/28 12:32:23;;;;;;;;;;;12.50;99.90;;;;;;4125182;28;19937;-53
2022/01/28 12:34:25;;;;;;;;;;;12.70;99.90;;;;;;4126013;28;19972;-54
2022/01/28 12:36:34;;;;;;;;;;;12.90;99.90;;;;;;4124782;28;20392;-54
2022/01/28 12:38:54;;;;;;;;;;;12.90;99.70;;;;;;4119786;28;20034;-54
2022/01/28 12:41:05;;;;;;;;;;;13.10;94.90;;;;;;4119715;28;20021;-54
2022/01/28 12:43:07;;;;;;;;;;;13.20;98.20;;;;;;4121951;28;20454;-53
2022/01/28 12:45:09;;;;;;;;;;;13.20;92.30;;;;;;4124883;28;20398;-53
2022/01/28 12:47:11;;;;;;;;;;;13.30;88.30;;;;;;4120588;28;20359;-51
2022/01/28 12:49:13;;;;;;;;;;;13.30;89.60;;;;;;4116318;28;19937;-52
2022/01/28 12:51:15;;;;;;;;;;;13.50;84.40;;;;;;4119226;28;19965;-52
2022/01/28 12:53:32;;;;;;;;;;;13.20;82.80;;;;;;4122779;28;20401;-52
2022/01/28 12:55:34;;;;;;;;;;;13.20;82.50;;;;;;4113747;28;20001;-52
2022/01/28 12:57:41;;;;;;;;;;;13.20;80.30;;;;;;4120293;28;19930;-52
2022/01/28 12:59:47;;;;;;;;;;;13.30;80.30;;;;;;4125665;28;19933;-52
2022/01/28 13:01:52;;;;;;;;;;;13.40;78.70;;;;;;4126536;28;20738;-52
2022/01/28 13:04:07;;;;;;;;;;;13.40;76.80;;;;;;4150471;28;19925;-52
2022/01/28 13:06:24;;;;;;;;;;;13.40;77.50;;;;;;4178226;28;19979;-51
2022/01/28 13:08:25;;;;;;;;;;;13.30;76.90;;;;;;4164494;28;20369;-52
2022/01/28 13:10:29;;;;;;;;;;;13.40;79.30;;;;;;4174952;28;19983;-53
2022/01/28 13:12:31;;;;;;;;;;;13.60;74.90;;;;;;4176397;28;19971;-51
2022/01/28 13:14:34;;;;;;;;;;;13.60;74.20;;;;;;4178631;28;20589;-51
2022/01/28 13:16:38;;;;;;;;;;;13.50;72.70;;;;;;4170428;28;20844;-51
2022/01/28 13:18:56;;;;;;;;;;;13.50;73.70;;;;;;4174122;28;19924;-53
2022/01/28 13:20:59;;;;;;;;;;;13.70;70.20;;;;;;4178168;28;20040;-51
2022/01/28 13:23:02;;;;;;;;;;;13.60;70.20;;;;;;4174846;28;19925;-51
2022/01/28 13:25:23;;;;;;;;;;;13.40;70.80;;;;;;4177894;28;19952;-52
2022/01/28 13:27:39;;;;;;;;;;;13.40;68.10;;;;;;4178002;28;19986;-51
2022/01/28 13:29:47;;;;;;;;;;;13.30;70.30;;;;;;4175674;28;19948;-51
2022/01/28 13:31:53;;;;;;;;;;;13.30;67.50;;;;;;4173846;28;19932;-52
2022/01/28 13:33:59;;;;;;;;;;;13.40;67.50;;;;;;4177438;28;19947;-56
2022/01/28 13:36:04;;;;;;;;;;;13.50;70.10;;;;;;4173352;28;20168;-57